createdAt,value
2023-03-29T00:01:35.428Z,2.85
2023-03-29T00:04:27.204Z,2.81
2023-03-29T00:07:34.074Z,2.87
2023-03-29T00:10:39.388Z,2.91
2023-03-29T00:13:47.166Z,2.97
2023-03-29T00:16:53.426Z,2.90
2023-03-29T00:20:00.131Z,3.02
2023-03-29T00:23:05.536Z,3.06
2023-03-29T00:26:07.959Z,3.09
2023-03-29T00:29:13.984Z,3.02
2023-03-29T00:32:18.535Z,2.99
2023-03-29T00:35:25.138Z,3.00
2023-03-29T00:38:30.732Z,3.06
2023-03-29T00:41:36.496Z,2.98
2023-03-29T00:45:21.365Z,2.98
2023-03-29T00:48:30.988Z,2.84
2023-03-29T00:51:36.329Z,2.93
2023-03-29T00:54:43.946Z,2.91
2023-03-29T00:57:44.395Z,2.93
2023-03-29T01:00:59.357Z,2.94
2023-03-29T01:04:10.196Z,2.99
2023-03-29T01:07:23.401Z,3.03
2023-03-29T01:10:35.777Z,2.71
2023-03-29T01:13:52.395Z,2.56
2023-03-29T01:16:57.638Z,2.41
2023-03-29T01:20:07.694Z,2.44
2023-03-29T01:23:42.110Z,2.53
2023-03-29T01:27:29.818Z,2.44
2023-03-29T01:30:43.618Z,2.45
2023-03-29T01:33:56.715Z,2.45
2023-03-29T01:37:20.267Z,2.48
2023-03-29T01:40:25.277Z,2.42
2023-03-29T01:44:05.488Z,2.31
2023-03-29T01:47:16.011Z,2.35
2023-03-29T01:50:32.778Z,2.21
2023-03-29T01:53:48.002Z,2.13
2023-03-29T01:56:56.419Z,2.18
2023-03-29T02:00:01.836Z,2.00
2023-03-29T02:03:06.522Z,2.00
2023-03-29T02:05:58.876Z,1.95
2023-03-29T02:09:04.642Z,1.90
2023-03-29T02:12:12.924Z,1.97
2023-03-29T02:15:20.513Z,2.12
2023-03-29T02:18:28.148Z,2.03
2023-03-29T02:21:40.997Z,1.91
2023-03-29T02:24:47.625Z,1.71
2023-03-29T02:27:53.524Z,1.75
2023-03-29T02:31:16.106Z,1.81
2023-03-29T02:34:37.573Z,1.84
2023-03-29T02:37:43.390Z,1.77
2023-03-29T02:40:42.978Z,1.62
2023-03-29T02:43:51.381Z,1.65
2023-03-29T02:46:57.587Z,1.57
2023-03-29T02:50:04.544Z,1.56
2023-03-29T02:53:13.803Z,1.46
2023-03-29T02:56:19.359Z,1.45
2023-03-29T02:59:25.653Z,1.47
2023-03-29T03:02:35.021Z,1.35
2023-03-29T03:05:41.045Z,1.28
2023-03-29T03:08:45.996Z,1.23
2023-03-29T03:11:44.900Z,1.27
2023-03-29T03:14:44.362Z,1.27
2023-03-29T03:17:50.218Z,1.23
2023-03-29T03:20:57.106Z,1.27
2023-03-29T03:24:03.490Z,1.34
2023-03-29T03:27:11.895Z,1.37
2023-03-29T03:30:20.149Z,1.33
2023-03-29T03:33:30.644Z,1.36
2023-03-29T03:36:55.583Z,1.35
2023-03-29T03:40:03.599Z,1.32
2023-03-29T03:43:09.948Z,1.26
2023-03-29T03:46:16.387Z,1.27
2023-03-29T03:49:21.604Z,1.21
2023-03-29T03:52:27.683Z,1.13
2023-03-29T03:55:33.439Z,1.11
2023-03-29T03:58:43.931Z,1.19
2023-03-29T04:01:51.028Z,1.21
2023-03-29T04:04:57.435Z,1.12
2023-03-29T04:08:05.124Z,1.23
2023-03-29T04:11:29.636Z,1.30
2023-03-29T04:14:31.617Z,1.28
2023-03-29T04:17:40.794Z,1.36
2023-03-29T04:20:59.253Z,1.37
2023-03-29T04:24:04.890Z,1.56
2023-03-29T04:27:11.482Z,1.47
2023-03-29T04:30:19.002Z,1.28
2023-03-29T04:33:40.522Z,1.50
2023-03-29T04:36:46.328Z,1.53
2023-03-29T04:39:53.540Z,1.54
2023-03-29T04:43:01.044Z,1.62
2023-03-29T04:46:07.568Z,1.63
2023-03-29T04:49:15.872Z,1.66
2023-03-29T04:52:24.391Z,1.72
2023-03-29T04:55:29.408Z,1.92
2023-03-29T04:58:32.284Z,1.84
2023-03-29T05:01:17.929Z,1.69
2023-03-29T05:04:12.821Z,1.75
2023-03-29T05:07:09.158Z,1.68
2023-03-29T05:10:14.983Z,1.67
2023-03-29T05:13:21.258Z,1.58
2023-03-29T05:16:27.157Z,1.59
2023-03-29T05:19:34.424Z,1.59
2023-03-29T05:22:40.111Z,1.63
2023-03-29T05:25:50.476Z,1.63
2023-03-29T05:28:56.083Z,1.54
2023-03-29T05:32:02.076Z,1.59
2023-03-29T05:35:06.857Z,1.62
2023-03-29T05:38:12.490Z,1.64
2023-03-29T05:41:19.348Z,1.79
2023-03-29T05:44:42.244Z,1.69
2023-03-29T05:47:48.983Z,1.66
2023-03-29T05:50:55.175Z,1.67
2023-03-29T05:54:00.906Z,1.74
2023-03-29T05:57:07.258Z,1.70
2023-03-29T06:00:08.274Z,1.74
2023-03-29T06:03:20.817Z,1.87
2023-03-29T06:06:23.656Z,1.85
2023-03-29T06:09:30.233Z,1.92
2023-03-29T06:12:36.962Z,1.86
2023-03-29T06:15:43.494Z,1.95
2023-03-29T06:18:51.777Z,2.07
2023-03-29T06:21:59.448Z,2.07
2023-03-29T06:25:06.144Z,2.12
2023-03-29T06:28:12.899Z,2.25
2023-03-29T06:31:19.482Z,2.18
2023-03-29T06:34:24.351Z,2.12
2023-03-29T06:37:41.153Z,2.00
2023-03-29T06:40:50.859Z,2.04
2023-03-29T06:43:56.825Z,2.11
2023-03-29T06:47:04.441Z,2.12
2023-03-29T06:50:05.092Z,2.03
2023-03-29T06:53:00.433Z,2.05
2023-03-29T06:56:06.551Z,2.10
2023-03-29T06:59:13.696Z,2.20
2023-03-29T07:02:29.704Z,2.18
2023-03-29T07:05:38.479Z,2.16
2023-03-29T07:08:47.123Z,2.15
2023-03-29T07:11:54.357Z,2.17
2023-03-29T07:15:00.439Z,2.19
2023-03-29T07:18:26.825Z,2.26
2023-03-29T07:21:31.405Z,2.23
2023-03-29T07:24:37.114Z,2.29
2023-03-29T07:27:42.821Z,2.34
2023-03-29T07:30:49.294Z,2.37
2023-03-29T07:33:57.283Z,2.45
2023-03-29T07:37:02.922Z,2.54
2023-03-29T07:40:11.911Z,2.51
2023-03-29T07:43:30.809Z,2.48
2023-03-29T07:46:37.264Z,2.65
2023-03-29T07:49:42.230Z,2.68
2023-03-29T07:52:48.839Z,2.66
2023-03-29T07:55:56.565Z,2.61
2023-03-29T07:59:02.298Z,2.66
2023-03-29T08:02:09.643Z,2.55
2023-03-29T08:05:29.064Z,2.52
2023-03-29T08:08:29.948Z,2.74
2023-03-29T08:11:36.934Z,2.90
2023-03-29T08:14:45.511Z,2.89
2023-03-29T08:17:54.624Z,2.96
2023-03-29T08:21:01.631Z,3.02
2023-03-29T08:24:08.044Z,2.99
2023-03-29T08:27:18.657Z,2.94
2023-03-29T08:30:26.586Z,3.03
2023-03-29T08:33:33.449Z,2.99
2023-03-29T08:36:43.706Z,2.98
2023-03-29T08:39:52.834Z,2.98
2023-03-29T08:43:38.524Z,3.03
2023-03-29T08:46:52.111Z,3.05
2023-03-29T08:50:07.921Z,3.10
2023-03-29T08:53:18.759Z,3.01
2023-03-29T08:56:40.746Z,3.04
2023-03-29T08:59:47.474Z,3.18
2023-03-29T09:02:54.546Z,3.05
2023-03-29T09:06:02.958Z,3.23
2023-03-29T09:09:09.314Z,3.26
2023-03-29T09:12:54.471Z,3.35
2023-03-29T09:16:16.664Z,3.43
2023-03-29T09:19:55.104Z,3.43
2023-03-29T09:23:30.728Z,3.41
2023-03-29T09:27:02.968Z,3.31
2023-03-29T09:30:24.194Z,3.53
2023-03-29T09:33:45.686Z,3.51
2023-03-29T09:37:18.705Z,3.41
2023-03-29T09:40:32.741Z,3.38
2023-03-29T09:43:50.150Z,3.26
2023-03-29T09:47:00.358Z,3.15
2023-03-29T09:50:29.476Z,3.15
2023-03-29T09:53:22.748Z,3.10
2023-03-29T09:56:35.115Z,3.17
2023-03-29T09:59:41.924Z,3.39
2023-03-29T10:02:48.716Z,3.42
2023-03-29T10:05:55.410Z,3.45
2023-03-29T10:09:05.928Z,3.48
2023-03-29T10:12:14.555Z,3.53
2023-03-29T10:15:29.768Z,3.46
2023-03-29T10:18:31.082Z,3.42
2023-03-29T10:21:36.240Z,3.35
2023-03-29T10:24:42.950Z,3.43
2023-03-29T10:27:48.675Z,3.35
2023-03-29T10:30:55.029Z,3.29
2023-03-29T10:34:09.806Z,3.14
2023-03-29T10:37:15.489Z,3.23
2023-03-29T10:40:21.338Z,3.19
2023-03-29T10:43:37.545Z,3.10
2023-03-29T10:46:47.430Z,3.12
2023-03-29T10:49:56.696Z,3.12
2023-03-29T10:53:02.258Z,2.93
2023-03-29T10:56:46.367Z,3.01
2023-03-29T11:00:13.938Z,2.96
2023-03-29T11:03:31.212Z,2.75
2023-03-29T11:07:08.506Z,2.75
2023-03-29T11:10:41.586Z,2.69
2023-03-29T11:14:00.046Z,2.62
2023-03-29T11:17:25.843Z,2.60
2023-03-29T11:21:02.736Z,2.73
2023-03-29T11:24:27.528Z,2.91
2023-03-29T11:28:21.131Z,3.11
2023-03-29T11:31:59.225Z,2.64
2023-03-29T11:35:19.228Z,2.63
2023-03-29T11:38:58.659Z,2.56
2023-03-29T11:42:06.978Z,2.50
2023-03-29T11:45:12.965Z,2.54
2023-03-29T11:48:21.241Z,2.49
2023-03-29T11:51:41.113Z,2.38
2023-03-29T11:55:07.876Z,2.45
2023-03-29T11:58:49.752Z,2.47
2023-03-29T12:02:09.076Z,2.37
2023-03-29T12:05:17.575Z,2.40
2023-03-29T12:08:38.135Z,2.44
2023-03-29T12:11:47.586Z,2.32
2023-03-29T12:15:07.265Z,2.31
2023-03-29T12:18:53.189Z,2.19
2023-03-29T12:22:00.675Z,2.18
2023-03-29T12:25:10.359Z,2.08
2023-03-29T12:28:39.932Z,2.04
2023-03-29T12:32:09.198Z,2.07
2023-03-29T12:35:41.603Z,2.06
2023-03-29T12:39:05.883Z,2.03
2023-03-29T12:42:33.267Z,2.15
2023-03-29T12:45:59.556Z,2.05
2023-03-29T12:49:05.034Z,2.07
2023-03-29T12:52:11.392Z,2.07
2023-03-29T12:55:20.616Z,1.93
2023-03-29T12:58:56.937Z,1.90
2023-03-29T13:02:31.562Z,1.86
2023-03-29T13:05:45.872Z,1.92
2023-03-29T13:09:00.207Z,1.99
2023-03-29T13:12:33.550Z,2.09
2023-03-29T13:15:40.003Z,2.11
2023-03-29T13:19:12.961Z,2.13
2023-03-29T13:22:34.207Z,2.17
2023-03-29T13:26:17.929Z,2.19
2023-03-29T13:29:34.351Z,2.09
2023-03-29T13:33:08.102Z,2.21
2023-03-29T13:36:26.345Z,2.21
2023-03-29T13:39:36.867Z,2.05
2023-03-29T13:42:53.877Z,2.02
2023-03-29T13:46:12.338Z,2.03
2023-03-29T13:49:27.541Z,2.11
2023-03-29T13:52:46.707Z,2.17
2023-03-29T13:55:57.638Z,2.07
2023-03-29T13:59:16.678Z,2.17
2023-03-29T14:02:31.615Z,2.21
2023-03-29T14:05:42.276Z,2.16
2023-03-29T14:08:56.223Z,2.31
2023-03-29T14:12:03.021Z,2.14
2023-03-29T14:15:10.655Z,2.16
2023-03-29T14:18:17.479Z,2.14
2023-03-29T14:21:29.211Z,2.16
2023-03-29T14:24:39.192Z,2.24
2023-03-29T14:27:46.737Z,2.23
2023-03-29T14:30:53.437Z,2.17
2023-03-29T14:33:59.793Z,2.19
2023-03-29T14:37:05.060Z,2.05
2023-03-29T14:40:04.081Z,1.88
2023-03-29T14:43:04.600Z,1.87
2023-03-29T14:46:10.257Z,1.88
2023-03-29T14:49:15.238Z,1.70
2023-03-29T14:52:20.653Z,1.92
2023-03-29T14:55:28.891Z,1.88
2023-03-29T14:58:42.560Z,1.95
2023-03-29T15:01:47.614Z,2.06
2023-03-29T15:04:48.597Z,2.08
2023-03-29T15:07:43.381Z,2.11
2023-03-29T15:10:50.649Z,1.90
2023-03-29T15:13:58.152Z,1.95
2023-03-29T15:17:05.019Z,2.07
2023-03-29T15:20:20.363Z,1.88
2023-03-29T15:23:31.811Z,1.88
2023-03-29T15:26:40.503Z,1.90
2023-03-29T15:29:53.550Z,1.89
2023-03-29T15:32:59.280Z,1.99
2023-03-29T15:35:59.818Z,2.02
2023-03-29T15:39:05.921Z,2.05
2023-03-29T15:42:10.827Z,2.07
2023-03-29T15:45:17.174Z,1.90
2023-03-29T15:48:34.982Z,1.83
2023-03-29T15:51:40.697Z,2.06
2023-03-29T15:54:45.868Z,1.92
2023-03-29T15:57:51.020Z,1.95
2023-03-29T16:01:00.806Z,1.95
2023-03-29T16:04:07.062Z,1.96
2023-03-29T16:07:13.169Z,2.04
2023-03-29T16:10:19.237Z,2.02
2023-03-29T16:13:27.048Z,2.18
2023-03-29T16:16:34.149Z,2.10
2023-03-29T16:19:40.930Z,2.16
2023-03-29T16:22:46.710Z,1.78
2023-03-29T16:25:53.567Z,1.86
2023-03-29T16:28:59.322Z,2.01
2023-03-29T16:32:06.911Z,2.08
2023-03-29T16:35:12.803Z,2.08
2023-03-29T16:38:18.192Z,2.06
2023-03-29T16:41:26.321Z,2.33
2023-03-29T16:44:34.835Z,2.12
2023-03-29T16:47:41.501Z,1.72
2023-03-29T16:50:46.287Z,1.69
2023-03-29T16:53:54.760Z,1.79
2023-03-29T16:56:59.673Z,1.69
2023-03-29T17:00:06.437Z,1.73
2023-03-29T17:03:11.145Z,1.82
2023-03-29T17:06:17.728Z,1.87
2023-03-29T17:09:24.482Z,1.97
2023-03-29T17:12:29.930Z,1.57
2023-03-29T17:15:38.159Z,1.59
2023-03-29T17:18:44.002Z,1.49
2023-03-29T17:21:49.819Z,1.56
2023-03-29T17:24:55.817Z,1.52
2023-03-29T17:27:54.813Z,1.85
2023-03-29T17:30:49.491Z,1.79
2023-03-29T17:33:57.487Z,1.90
2023-03-29T17:37:03.001Z,1.83
2023-03-29T17:40:07.855Z,2.11
2023-03-29T17:43:12.527Z,1.84
2023-03-29T17:46:17.869Z,1.75
2023-03-29T17:49:23.178Z,1.81
2023-03-29T17:52:27.869Z,1.86
2023-03-29T17:55:34.505Z,1.86
2023-03-29T17:58:40.916Z,1.75
2023-03-29T18:01:48.133Z,1.72
2023-03-29T18:04:54.416Z,1.83
2023-03-29T18:07:59.719Z,1.82
2023-03-29T18:11:05.863Z,1.83
2023-03-29T18:14:12.632Z,1.73
2023-03-29T18:17:19.164Z,1.69
2023-03-29T18:20:27.071Z,1.57
2023-03-29T18:23:32.974Z,1.59
2023-03-29T18:26:39.913Z,1.64
2023-03-29T18:29:45.393Z,1.36
2023-03-29T18:32:51.529Z,1.49
2023-03-29T18:35:57.480Z,1.45
2023-03-29T18:39:02.385Z,1.49
2023-03-29T18:42:10.804Z,1.47
2023-03-29T18:45:16.566Z,1.63
2023-03-29T18:48:22.871Z,1.71
2023-03-29T18:51:30.059Z,1.68
2023-03-29T18:54:35.761Z,1.38
2023-03-29T18:57:41.306Z,1.63
2023-03-29T19:00:47.447Z,1.58
2023-03-29T19:03:54.842Z,1.64
2023-03-29T19:07:00.486Z,1.70
2023-03-29T19:10:06.652Z,1.56
2023-03-29T19:13:12.613Z,1.45
2023-03-29T19:16:19.628Z,1.52
2023-03-29T19:19:26.218Z,1.35
2023-03-29T19:22:32.248Z,1.47
2023-03-29T19:25:37.913Z,1.43
2023-03-29T19:28:44.229Z,1.40
2023-03-29T19:31:49.110Z,1.32
2023-03-29T19:34:54.514Z,1.35
2023-03-29T19:38:01.061Z,1.36
2023-03-29T19:41:07.812Z,1.40
2023-03-29T19:44:14.107Z,1.50
2023-03-29T19:47:21.260Z,1.50
2023-03-29T19:50:26.965Z,1.53
2023-03-29T19:53:33.636Z,1.39
2023-03-29T19:56:42.221Z,1.48
2023-03-29T19:59:49.881Z,1.60
2023-03-29T20:02:57.282Z,1.62
2023-03-29T20:06:03.678Z,1.61
2023-03-29T20:09:11.742Z,1.64
2023-03-29T20:12:17.272Z,1.58
2023-03-29T20:15:23.543Z,1.46
2023-03-29T20:18:28.838Z,1.42
2023-03-29T20:21:33.766Z,1.51
2023-03-29T20:24:41.046Z,1.49
2023-03-29T20:27:50.720Z,1.66
2023-03-29T20:30:57.999Z,1.74
2023-03-29T20:34:03.489Z,1.69
2023-03-29T20:37:08.573Z,1.61
2023-03-29T20:40:14.851Z,1.64
2023-03-29T20:43:24.673Z,1.47
2023-03-29T20:46:30.801Z,1.66
2023-03-29T20:49:37.552Z,1.58
2023-03-29T20:52:43.594Z,1.51
2023-03-29T20:55:49.136Z,1.54
2023-03-29T20:58:54.856Z,1.55
2023-03-29T21:02:00.446Z,1.62
2023-03-29T21:05:07.032Z,1.60
2023-03-29T21:08:12.005Z,1.65
2023-03-29T21:11:19.864Z,1.62
2023-03-29T21:14:28.986Z,1.50
2023-03-29T21:17:34.077Z,1.52
2023-03-29T21:20:39.202Z,1.55
2023-03-29T21:23:44.859Z,1.59
2023-03-29T21:26:50.112Z,1.66
2023-03-29T21:29:49.749Z,1.28
2023-03-29T21:32:55.333Z,1.31
2023-03-29T21:36:02.502Z,1.30
2023-03-29T21:39:07.155Z,1.27
2023-03-29T21:42:12.506Z,1.36
2023-03-29T21:45:18.548Z,1.31
2023-03-29T21:48:24.166Z,1.41
2023-03-29T21:51:30.051Z,1.42
2023-03-29T21:54:34.689Z,1.38
2023-03-29T21:57:40.013Z,1.46
2023-03-29T22:00:45.815Z,1.45
2023-03-29T22:03:53.286Z,1.38
2023-03-29T22:06:59.887Z,1.51
2023-03-29T22:10:09.016Z,1.60
2023-03-29T22:13:16.238Z,1.43
2023-03-29T22:16:23.651Z,1.50
2023-03-29T22:19:29.033Z,1.45
2023-03-29T22:22:34.962Z,1.50
2023-03-29T22:25:40.691Z,1.61
2023-03-29T22:28:46.350Z,1.61
2023-03-29T22:31:46.504Z,1.58
2023-03-29T22:34:51.860Z,1.38
2023-03-29T22:38:01.261Z,1.21
2023-03-29T22:41:07.799Z,1.17
2023-03-29T22:44:14.138Z,1.35
2023-03-29T22:47:19.476Z,1.40
2023-03-29T22:50:24.950Z,1.42
2023-03-29T22:53:30.523Z,1.36
2023-03-29T22:56:31.870Z,1.25
2023-03-29T22:59:24.717Z,1.24
2023-03-29T23:02:30.386Z,1.44
2023-03-29T23:05:34.765Z,1.55
2023-03-29T23:08:40.412Z,1.28
2023-03-29T23:11:46.991Z,1.34
2023-03-29T23:14:54.112Z,1.34
2023-03-29T23:18:00.458Z,1.17
2023-03-29T23:21:07.995Z,1.15
2023-03-29T23:24:13.897Z,0.99
2023-03-29T23:27:20.400Z,1.10
2023-03-29T23:30:26.539Z,1.18
2023-03-29T23:33:26.522Z,1.16
2023-03-29T23:36:34.795Z,1.09
2023-03-29T23:39:40.748Z,1.11
2023-03-29T23:42:45.988Z,1.34
2023-03-29T23:45:51.528Z,1.01
2023-03-29T23:49:01.365Z,1.17
2023-03-29T23:52:07.013Z,1.20
2023-03-29T23:55:11.288Z,1.23
2023-03-29T23:58:10.233Z,1.39
